Terminal Aerodrome Forecast
Issued by NWS

Home | Current Version | Previous Version | Graphics & Text | Print | Product List | Glossary On
Versions: 1 2 3 4 5 6 7 8 9 10 11 12 13 14 15 16 17 18 19 20 21
000
FTUS43 KICT 271011 AAA
TAFSLN
TAF AMD
KSLN 271011Z 2710/2806 19008KT P6SM VCTS BKN100CB
      TEMPO 2710/2712 VRB15G25KT -TSRA
     FM271200 13008KT P6SM SCT250
     FM271500 17014KT P6SM SCT250
     FM271800 18019G27KT P6SM SCT250
     FM280100 17014G19KT P6SM SCT250=

USA.gov is the U.S. government's official web portal to all federal, state and local government web resources and services.